Time;durP1;ratioP1;P1;durP2;ratioP2;P2;SDS_P1;SDS_P2;PMS_P1;PMS_P2;Temp;Humidity;BMP_temperature;BMP_pressure;BME280_temperature;BME280_humidity;BME280_pressure;Samples;Min_cycle;Max_cycle;Signal;HPM_P1;HPM_P2
2021/10/16 06:29:16;;;;;;;;;49.00;41.25;;;;;13.96;53.96;101563.81;4936041;29;11495;-71
2021/10/16 06:32:12;;;;;;;;;52.25;44.25;;;;;14.22;53.51;101566.47;4927365;29;11032;-70
2021/10/16 06:35:08;;;;;;;;;35.00;33.75;;;;;14.53;53.06;101552.25;4936392;29;11108;-71
2021/10/16 06:38:04;;;;;;;;;17.50;15.00;;;;;14.71;52.81;101550.97;4907436;29;10712;-69
2021/10/16 06:41:02;;;;;;;;;47.50;40.25;;;;;14.66;52.17;101548.41;4928680;29;10552;-69
2021/10/16 06:43:58;;;;;;;;;46.50;40.25;;;;;14.90;52.18;101555.28;4916106;29;11013;-71
2021/10/16 06:46:53;;;;;;;;;39.00;35.75;;;;;15.13;51.60;101551.00;4915976;29;11042;-71
2021/10/16 06:49:49;;;;;;;;;33.50;25.75;;;;;15.39;51.07;101547.16;4916394;29;10534;-71
2021/10/16 06:52:44;;;;;;;;;29.50;28.25;;;;;15.06;51.57;101536.81;4923001;29;10246;-70
2021/10/16 06:55:40;;;;;;;;;31.00;26.25;;;;;15.30;51.22;101534.13;4933270;29;9998;-72
2021/10/16 06:58:36;;;;;;;;;27.50;26.00;;;;;15.41;51.04;101547.63;4934559;29;10040;-72
2021/10/16 07:01:32;;;;;;;;;24.50;23.50;;;;;15.59;50.51;101551.88;4933394;29;9963;-70
2021/10/16 07:04:01;;;;;;;;;21.25;21.25;;;;;15.83;50.05;101545.56;4937983;29;9728;-70
2021/10/16 07:06:40;;;;;;;;;20.00;20.00;;;;;16.01;49.97;101535.81;4933756;29;9885;-72
2021/10/16 07:09:08;;;;;;;;;32.00;30.75;;;;;15.70;50.13;101544.72;4929284;29;9726;-71
2021/10/16 07:11:42;;;;;;;;;23.50;22.50;;;;;15.64;50.42;101537.75;4950890;29;9816;-72
2021/10/16 07:14:11;;;;;;;;;24.50;23.75;;;;;15.99;49.83;101524.19;4954880;29;9550;-72
2021/10/16 07:16:39;;;;;;;;;22.25;22.25;;;;;16.12;50.01;101525.84;4954582;29;9572;-73
2021/10/16 07:19:34;;;;;;;;;20.33;19.33;;;;;16.23;49.15;101523.38;4940752;29;9479;-73
2021/10/16 07:22:30;;;;;;;;;25.67;25.67;;;;;16.06;49.70;101521.66;4953632;29;10121;-72
2021/10/16 07:25:26;;;;;;;;;23.67;23.67;;;;;16.19;49.80;101521.66;4923158;28;9485;-72
2021/10/16 07:28:23;;;;;;;;;26.75;26.75;;;;;16.30;49.48;101520.84;4951916;29;9481;-72
2021/10/16 07:31:19;;;;;;;;;27.75;27.75;;;;;16.28;49.53;101513.97;4937117;29;9727;-73
2021/10/16 07:33:49;;;;;;;;;25.25;24.00;;;;;16.04;49.63;101512.81;4939362;28;9752;-71
2021/10/16 07:36:46;;;;;;;;;28.75;25.75;;;;;16.22;49.38;101513.41;4937499;29;9579;-70
2021/10/16 07:39:42;;;;;;;;;24.00;24.00;;;;;16.23;49.77;101515.03;4937943;29;9483;-71
2021/10/16 07:42:38;;;;;;;;;22.33;22.00;;;;;16.79;48.76;101512.44;4918945;29;9582;-72
2021/10/16 07:45:33;;;;;;;;;36.50;32.75;;;;;16.64;48.94;101518.72;4918955;29;9437;-72
2021/10/16 07:48:29;;;;;;;;;30.25;28.00;;;;;16.82;48.75;101516.50;4937711;29;9895;-72
2021/10/16 07:51:11;;;;;;;;;32.25;31.50;;;;;17.32;51.95;101507.53;4939244;29;9633;-73
2021/10/16 07:54:07;;;;;;;;;44.50;39.25;;;;;17.38;48.58;101508.91;4906054;29;9583;-73
2021/10/16 07:57:03;;;;;;;;;46.25;40.25;;;;;17.50;48.65;101506.06;4918645;29;10055;-73
2021/10/16 07:59:58;;;;;;;;;50.50;38.75;;;;;17.86;47.46;101506.22;4919151;29;9828;-73
2021/10/16 08:02:54;;;;;;;;;46.75;38.50;;;;;17.85;47.24;101498.97;4918614;29;9899;-73
2021/10/16 08:05:49;;;;;;;;;36.50;34.25;;;;;18.07;46.82;101487.16;4919333;29;10713;-73
2021/10/16 08:08:45;;;;;;;;;34.67;32.67;;;;;18.05;47.05;101481.94;4920870;28;9859;-72
2021/10/16 08:11:41;;;;;;;;;35.33;33.67;;;;;17.99;47.32;101486.16;4951608;29;9366;-73
2021/10/16 08:14:36;;;;;;;;;25.33;25.33;;;;;17.70;47.59;101475.41;4937552;29;10255;-73
2021/10/16 08:17:32;;;;;;;;;30.00;29.00;;;;;17.74;47.79;101474.34;4924688;29;9647;-72
2021/10/16 08:20:29;;;;;;;;;32.00;31.33;;;;;18.41;51.53;101476.38;4937537;29;9260;-73
2021/10/16 08:23:24;;;;;;;;;21.33;20.67;;;;;18.50;50.32;101472.19;4940063;29;10115;-73
2021/10/16 08:26:20;;;;;;;;;33.00;30.67;;;;;18.43;49.73;101468.41;4937040;29;9377;-72
2021/10/16 08:28:48;;;;;;;;;30.50;29.00;;;;;18.59;47.08;101469.97;4921414;29;9349;-72
2021/10/16 08:31:16;;;;;;;;;22.50;22.50;;;;;18.68;46.67;101463.38;4938551;29;8856;-72
2021/10/16 08:33:44;;;;;;;;;31.25;27.75;;;;;19.12;47.97;101456.28;4921534;29;9571;-72
2021/10/16 08:36:13;;;;;;;;;34.67;33.00;;;;;18.89;45.78;101467.44;4938318;29;8952;-72
2021/10/16 08:38:42;;;;;;;;;35.25;32.25;;;;;19.15;46.34;101458.34;4920627;29;9082;-71
2021/10/16 08:41:21;;;;;;;;;27.00;26.00;;;;;18.88;47.22;101456.59;4936933;29;9658;-72
2021/10/16 08:44:17;;;;;;;;;26.50;26.25;;;;;19.10;47.79;101455.06;4936724;29;8860;-73
2021/10/16 08:47:13;;;;;;;;;40.00;34.00;;;;;19.33;45.97;101444.69;4938304;29;9067;-72
2021/10/16 08:50:10;;;;;;;;;32.33;30.67;;;;;19.47;45.67;101443.28;4936732;29;8948;-72
2021/10/16 08:53:06;;;;;;;;;22.75;22.75;;;;;19.83;47.05;101437.16;4938132;29;9087;-72
2021/10/16 08:56:04;;;;;;;;;29.00;26.00;;;;;19.98;46.96;101435.38;4936387;29;8860;-72
2021/10/16 08:59:00;;;;;;;;;28.00;26.50;;;;;19.92;44.30;101436.88;4935195;29;9599;-70
2021/10/16 09:02:01;;;;;;;;;24.25;23.00;;;;;20.15;52.55;101429.22;4923884;29;8949;-72
2021/10/16 09:05:17;;;;;;;;;29.00;28.50;;;;;20.12;51.18;101424.38;4936461;29;8841;-71
2021/10/16 09:08:30;;;;;;;;;24.50;24.50;;;;;20.13;45.21;101422.38;4923506;29;8877;-71
2021/10/16 09:11:27;;;;;;;;;31.25;29.75;;;;;20.09;45.76;101427.09;4936099;29;8867;-72
2021/10/16 09:14:27;;;;;;;;;44.25;34.25;;;;;19.77;48.43;101412.56;4936233;29;8858;-71
2021/10/16 09:17:23;;;;;;;;;34.75;32.25;;;;;20.19;46.39;101418.88;4936512;29;8849;-72
2021/10/16 09:20:31;;;;;;;;;30.00;30.00;;;;;20.54;50.43;101415.75;4934783;29;8875;-71
2021/10/16 09:23:26;;;;;;;;;34.25;32.00;;;;;20.71;50.28;101405.94;4920574;29;8905;-71
2021/10/16 09:26:22;;;;;;;;;34.50;30.25;;;;;20.80;44.38;101403.66;4933807;29;8856;-72
2021/10/16 09:29:19;;;;;;;;;36.75;30.75;;;;;20.75;44.37;101412.41;4923051;29;8845;-70
2021/10/16 09:32:04;;;;;;;;;31.00;30.25;;;;;20.73;44.26;101403.56;4937212;29;8916;-72
2021/10/16 09:34:34;;;;;;;;;31.25;29.75;;;;;20.58;44.04;101404.56;4933392;29;8885;-72
2021/10/16 09:37:03;;;;;;;;;24.25;22.25;;;;;20.73;44.17;101402.75;4936647;29;8939;-72
2021/10/16 09:39:32;;;;;;;;;29.25;27.75;;;;;20.67;44.44;101393.84;4936872;29;8869;-71
2021/10/16 09:42:01;;;;;;;;;41.00;34.00;;;;;20.41;44.15;101402.31;4936962;29;8860;-72
2021/10/16 09:44:32;;;;;;;;;29.50;29.25;;;;;20.35;44.74;101392.59;4937119;29;8873;-71
2021/10/16 09:47:18;;;;;;;;;21.75;21.75;;;;;20.63;43.99;101387.38;4936726;29;8947;-71
2021/10/16 09:49:48;;;;;;;;;32.25;31.25;;;;;21.02;44.56;101384.22;4936149;29;9118;-71
2021/10/16 09:52:18;;;;;;;;;25.00;24.25;;;;;21.10;44.31;101385.91;4951470;29;8899;-72
2021/10/16 09:54:49;;;;;;;;;29.75;26.50;;;;;21.05;45.44;101384.22;4936972;29;8927;-72
2021/10/16 09:57:21;;;;;;;;;31.00;29.50;;;;;21.19;44.74;101382.75;4936839;29;8841;-72
2021/10/16 09:59:53;;;;;;;;;27.75;27.50;;;;;21.05;43.41;101378.59;4936669;29;8857;-72
2021/10/16 10:02:20;;;;;;;;;24.25;24.25;;;;;21.31;47.50;101380.50;4936686;29;8881;-71
2021/10/16 10:04:49;;;;;;;;;40.00;35.50;;;;;21.24;44.17;101377.59;4935424;29;8886;-71
2021/10/16 10:07:18;;;;;;;;;43.75;35.25;;;;;21.10;43.40;101372.63;4919399;29;8864;-71
2021/10/16 10:09:47;;;;;;;;;34.00;29.50;;;;;21.23;45.04;101367.53;4935505;29;8861;-72
2021/10/16 10:12:43;;;;;;;;;46.33;37.67;;;;;21.28;43.37;101366.41;4932685;29;8933;-73
2021/10/16 10:15:39;;;;;;;;;45.00;37.75;;;;;21.60;44.36;101364.66;4912982;29;8938;-73
2021/10/16 10:21:52;;;;;;;;;19.25;19.25;;;;;22.12;42.03;101359.81;4934442;29;8861;-73
2021/10/16 10:24:53;;;;;;;;;15.00;15.00;;;;;22.22;40.93;101354.63;4922477;29;8853;-72
2021/10/16 10:27:50;;;;;;;;;13.25;13.25;;;;;22.41;40.81;101352.31;4932739;29;8895;-72
2021/10/16 10:30:46;;;;;;;;;13.50;13.50;;;;;22.59;40.02;101348.75;4934782;29;8873;-72
2021/10/16 10:33:29;;;;;;;;;15.00;15.00;;;;;22.96;40.32;101346.47;4926074;29;8873;-72
2021/10/16 10:36:25;;;;;;;;;18.00;18.00;;;;;22.87;40.49;101346.06;4933466;29;8864;-72
2021/10/16 10:39:44;;;;;;;;;12.50;12.50;;;;;22.89;39.82;101343.63;4915234;29;8876;-72
2021/10/16 10:42:42;;;;;;;;;15.50;14.50;;;;;22.96;40.17;101337.22;4934523;29;9771;-72
2021/10/16 10:45:39;;;;;;;;;13.00;13.00;;;;;22.81;40.76;101327.06;4933178;29;8936;-72
2021/10/16 10:48:48;;;;;;;;;13.50;13.50;;;;;22.60;40.23;101337.06;4933020;29;8849;-72
2021/10/16 10:51:56;;;;;;;;;15.50;15.50;;;;;22.58;40.81;101321.78;4934678;29;8864;-72
2021/10/16 10:55:12;;;;;;;;;10.50;9.75;;;;;22.57;40.43;101323.78;4934242;29;8865;-73
2021/10/16 10:58:10;;;;;;;;;18.50;18.50;;;;;22.70;41.25;101321.41;4931385;29;9650;-72
2021/10/16 11:01:05;;;;;;;;;15.50;15.50;;;;;22.75;40.39;101323.81;4933483;29;8892;-73
2021/10/16 11:03:47;;;;;;;;;13.00;13.00;;;;;22.81;39.92;101312.97;4934995;29;8861;-72
2021/10/16 11:06:17;;;;;;;;;15.00;15.00;;;;;23.14;39.22;101323.13;4934693;29;8853;-72
2021/10/16 11:08:49;;;;;;;;;21.50;19.75;;;;;23.30;39.01;101321.50;4934880;29;8943;-73
2021/10/16 11:11:51;;;;;;;;;23.25;21.75;;;;;23.37;39.86;101317.88;4929020;29;8877;-72
2021/10/16 11:14:47;;;;;;;;;14.25;14.25;;;;;23.36;38.57;101315.47;4933627;29;8849;-72
2021/10/16 11:17:45;;;;;;;;;11.00;11.00;;;;;23.68;38.16;101302.16;4928857;29;8935;-72
2021/10/16 11:20:42;;;;;;;;;16.50;16.50;;;;;23.65;38.07;101300.16;4930947;29;8870;-73
2021/10/16 11:23:40;;;;;;;;;14.00;14.00;;;;;23.37;38.77;101298.13;4933801;29;8940;-72
2021/10/16 11:26:14;;;;;;;;;18.00;17.75;;;;;23.64;38.91;101289.28;4935844;29;8841;-72
2021/10/16 11:28:43;;;;;;;;;13.50;13.50;;;;;23.49;38.34;101294.91;4935106;29;8887;-72
2021/10/16 11:31:24;;;;;;;;;21.75;21.00;;;;;23.31;39.30;101291.28;4930338;29;9666;-72
2021/10/16 11:34:19;;;;;;;;;11.75;11.25;;;;;23.21;39.33;101292.88;4933150;29;8927;-71
2021/10/16 11:37:15;;;;;;;;;19.00;19.00;;;;;22.96;39.27;101284.41;4928478;29;8876;-71
2021/10/16 11:40:00;;;;;;;;;26.25;26.00;;;;;22.59;39.63;101281.09;4918675;29;8975;-72
2021/10/16 11:43:01;;;;;;;;;21.00;21.00;;;;;22.75;39.92;101281.53;4932360;29;8931;-71
2021/10/16 11:45:57;;;;;;;;;18.50;18.50;;;;;22.94;40.42;101286.03;4934404;29;8931;-72
2021/10/16 11:48:55;;;;;;;;;13.50;13.50;;;;;22.85;40.15;101283.63;4921520;29;8845;-72
2021/10/16 11:51:50;;;;;;;;;8.00;8.00;;;;;22.89;40.01;101281.59;4934578;29;8868;-72
2021/10/16 11:54:46;;;;;;;;;14.00;13.50;;;;;22.59;41.03;101279.09;4934211;29;8873;-72
2021/10/16 11:57:42;;;;;;;;;14.75;14.75;;;;;22.39;41.29;101273.00;4933861;29;8863;-72
2021/10/16 12:00:39;;;;;;;;;11.75;11.75;;;;;22.44;41.32;101271.81;4932408;29;8868;-72
2021/10/16 12:03:40;;;;;;;;;11.75;11.75;;;;;22.47;41.01;101271.03;4933871;29;8865;-72
2021/10/16 12:06:36;;;;;;;;;15.50;14.00;;;;;22.38;41.13;101264.94;4921686;29;9432;-73
2021/10/16 12:09:31;;;;;;;;;14.75;14.75;;;;;22.36;40.79;101264.53;4932919;29;8873;-72
2021/10/16 12:12:27;;;;;;;;;18.25;18.25;;;;;21.98;41.58;101268.78;4935402;29;8841;-72
2021/10/16 12:15:25;;;;;;;;;20.50;20.50;;;;;21.96;42.36;101271.19;4935565;29;9596;-72
2021/10/16 12:18:26;;;;;;;;;22.00;22.00;;;;;21.96;42.49;101268.38;4932493;29;8968;-72
2021/10/16 12:21:34;;;;;;;;;20.75;20.75;;;;;22.00;42.49;101266.38;4936548;29;8861;-72
2021/10/16 12:24:30;;;;;;;;;23.50;23.50;;;;;21.96;42.41;101265.56;4918358;29;8883;-72
2021/10/16 12:27:29;;;;;;;;;14.25;14.25;;;;;22.07;42.01;101272.03;4927916;29;8975;-72
2021/10/16 12:30:25;;;;;;;;;20.50;20.50;;;;;22.08;41.92;101268.03;4937142;29;8978;-72
2021/10/16 12:33:20;;;;;;;;;32.50;31.50;;;;;21.84;42.45;101273.13;4932839;29;8893;-72
2021/10/16 12:36:24;;;;;;;;;29.25;29.25;;;;;21.61;43.14;101267.75;4932199;29;8860;-72
2021/10/16 12:39:24;;;;;;;;;38.50;35.00;;;;;21.52;43.00;101258.88;4937102;29;8853;-73
2021/10/16 12:42:26;;;;;;;;;37.50;33.50;;;;;21.54;43.55;101273.34;4935658;29;8967;-72
2021/10/16 12:45:23;;;;;;;;;12.00;11.00;;;;;21.31;42.91;101267.94;4933792;29;8910;-72
2021/10/16 12:48:30;;;;;;;;;27.00;26.25;;;;;21.10;43.71;101259.34;4936165;29;8843;-72
2021/10/16 12:51:36;;;;;;;;;27.75;26.75;;;;;21.32;43.60;101263.16;4937014;29;8875;-71
2021/10/16 12:54:41;;;;;;;;;25.75;25.50;;;;;21.31;43.96;101258.72;4936127;29;8837;-71
2021/10/16 12:57:56;;;;;;;;;38.00;34.25;;;;;21.21;44.00;101257.41;4923966;29;8876;-72
2021/10/16 13:00:51;;;;;;;;;33.25;29.25;;;;;20.98;43.91;101256.81;4936704;29;8927;-72
2021/10/16 13:03:22;;;;;;;;;22.75;22.75;;;;;20.86;44.13;101257.94;4937720;29;8951;-72
2021/10/16 13:06:18;;;;;;;;;20.25;19.25;;;;;20.93;44.24;101266.41;4932687;29;9576;-71
2021/10/16 13:09:16;;;;;;;;;23.75;23.75;;;;;20.77;44.80;101266.66;4936097;29;8853;-72
2021/10/16 13:12:13;;;;;;;;;21.75;21.75;;;;;20.81;45.25;101267.50;4926354;29;8847;-72
2021/10/16 13:15:09;;;;;;;;;14.75;14.75;;;;;20.74;45.12;101263.81;4928614;29;8855;-71
2021/10/16 13:18:05;;;;;;;;;20.00;20.00;;;;;20.57;44.74;101259.66;4916991;29;8914;-71
2021/10/16 13:21:01;;;;;;;;;16.75;16.75;;;;;20.55;45.39;101264.84;4929930;29;8853;-73
2021/10/16 13:23:56;;;;;;;;;14.00;14.00;;;;;20.48;45.46;101253.53;4935378;29;8860;-72
2021/10/16 13:27:17;;;;;;;;;18.75;18.75;;;;;20.60;45.84;101258.88;4936277;29;8857;-70
2021/10/16 13:30:17;;;;;;;;;18.75;17.25;;;;;20.42;45.83;101255.03;4915843;29;9109;-70
2021/10/16 13:33:13;;;;;;;;;2.25;2.25;;;;;20.45;46.03;101257.91;4914976;29;8853;-69
2021/10/16 13:36:08;;;;;;;;;18.50;18.25;;;;;20.47;46.01;101257.50;4913082;29;8861;-70
2021/10/16 13:39:04;;;;;;;;;17.25;17.25;;;;;20.34;46.29;101253.34;4914945;29;8876;-69
2021/10/16 13:42:00;;;;;;;;;14.50;14.50;;;;;20.38;45.81;101256.97;4910801;29;8892;-69
2021/10/16 13:44:56;;;;;;;;;17.50;17.50;;;;;20.27;46.82;101256.88;4915092;29;8843;-69
2021/10/16 13:47:42;;;;;;;;;13.50;13.50;;;;;20.28;46.39;101252.88;4903393;29;8882;-69
2021/10/16 13:50:10;;;;;;;;;20.25;17.75;;;;;20.28;46.59;101250.88;4900136;29;8884;-69
2021/10/16 13:52:56;;;;;;;;;17.50;17.50;;;;;20.25;46.55;101259.25;4914626;29;8848;-69
2021/10/16 13:55:51;;;;;;;;;22.00;22.00;;;;;20.21;46.77;101259.19;4895866;29;8845;-70
2021/10/16 13:58:47;;;;;;;;;20.50;20.50;;;;;20.13;46.52;101257.50;4910782;29;8925;-70
2021/10/16 14:01:42;;;;;;;;;20.50;20.50;;;;;20.24;47.06;101258.47;4915202;29;8864;-70
2021/10/16 14:04:38;;;;;;;;;21.00;20.00;;;;;20.16;47.51;101255.91;4916846;29;8852;-70
2021/10/16 14:07:07;;;;;;;;;17.50;16.50;;;;;20.10;47.50;101254.66;4909165;29;8857;-70
2021/10/16 14:10:03;;;;;;;;;16.50;16.50;;;;;20.06;47.88;101254.59;4908886;29;8867;-71
2021/10/16 14:12:59;;;;;;;;;18.50;18.50;;;;;19.98;47.92;101256.50;4909600;29;8855;-70
2021/10/16 14:15:54;;;;;;;;;18.00;18.00;;;;;20.05;48.01;101255.00;4915400;29;8863;-70
2021/10/16 14:18:50;;;;;;;;;17.50;17.50;;;;;19.99;48.26;101255.31;4914082;29;8853;-70
2021/10/16 14:21:46;;;;;;;;;20.75;20.25;;;;;19.91;48.62;101253.59;4897573;29;8843;-69
2021/10/16 14:24:41;;;;;;;;;18.00;17.50;;;;;19.90;48.64;101256.81;4915141;29;8836;-70
2021/10/16 14:27:38;;;;;;;;;22.50;22.50;;;;;19.82;49.30;101252.28;4921248;29;8861;-69
2021/10/16 14:30:33;;;;;;;;;26.00;26.00;;;;;19.85;49.52;101248.72;4933280;29;8873;-70
2021/10/16 14:33:30;;;;;;;;;27.00;27.00;;;;;19.73;49.32;101248.97;4931240;29;8959;-69
2021/10/16 14:36:25;;;;;;;;;26.50;26.50;;;;;19.66;49.45;101252.47;4924648;29;8860;-69
2021/10/16 14:38:54;;;;;;;;;20.75;20.75;;;;;19.49;49.09;101250.19;4935627;29;8861;-69
2021/10/16 14:41:49;;;;;;;;;22.50;22.25;;;;;19.47;49.21;101253.34;4932929;29;8857;-69
2021/10/16 14:44:17;;;;;;;;;24.25;22.50;;;;;19.50;49.28;101261.03;4935384;29;8864;-70
2021/10/16 14:47:12;;;;;;;;;23.75;23.75;;;;;19.47;49.38;101258.97;4934550;29;8848;-69
2021/10/16 14:50:08;;;;;;;;;22.25;22.25;;;;;19.37;49.91;101260.44;4930424;29;8870;-69
2021/10/16 14:52:58;;;;;;;;;20.00;17.50;;;;;19.32;49.88;101257.13;4935384;29;8864;-68
2021/10/16 14:55:54;;;;;;;;;17.50;17.50;;;;;19.28;49.99;101268.31;4921704;29;8859;-69
2021/10/16 14:58:49;;;;;;;;;18.75;18.75;;;;;19.24;50.15;101275.84;4934184;29;8865;-69
2021/10/16 15:01:45;;;;;;;;;18.25;18.25;;;;;19.17;50.14;101270.94;4934986;29;8889;-69
2021/10/16 15:04:26;;;;;;;;;16.75;16.00;;;;;19.15;50.20;101276.09;4934591;29;8848;-69
2021/10/16 15:07:22;;;;;;;;;30.00;27.67;;;;;19.15;50.48;101275.28;4937513;29;8843;-69
2021/10/16 15:10:06;;;;;;;;;27.25;24.00;;;;;19.10;50.44;101273.63;4930831;29;9696;-68
2021/10/16 15:13:01;;;;;;;;;20.50;19.25;;;;;19.03;50.66;101275.50;4925091;29;8892;-68
2021/10/16 15:15:57;;;;;;;;;22.00;22.00;;;;;18.89;50.78;101276.06;4934124;29;8854;-68
2021/10/16 15:18:42;;;;;;;;;25.25;24.50;;;;;18.89;50.75;101287.28;4933366;29;8876;-69
2021/10/16 15:21:38;;;;;;;;;21.50;21.50;;;;;18.95;51.05;101282.97;4934403;29;8872;-69
2021/10/16 15:24:05;;;;;;;;;25.25;25.25;;;;;18.87;51.44;101292.44;4933562;29;8853;-69
2021/10/16 15:27:01;;;;;;;;;16.50;16.50;;;;;18.85;51.38;101286.38;4934144;29;8862;-69
2021/10/16 15:29:30;;;;;;;;;18.75;18.50;;;;;18.92;51.61;101289.31;4935008;29;9721;-68
2021/10/16 15:32:26;;;;;;;;;16.75;16.50;;;;;18.90;51.22;101288.88;4933397;29;8877;-68
2021/10/16 15:35:31;;;;;;;;;22.25;22.25;;;;;18.90;51.56;101288.88;4931404;29;8823;-69
2021/10/16 15:38:07;;;;;;;;;23.50;23.50;;;;;18.79;52.47;101302.72;4930397;29;8833;-68
2021/10/16 15:41:05;;;;;;;;;18.00;18.00;;;;;18.82;52.25;101290.75;4919143;29;8839;-68
2021/10/16 15:43:33;;;;;;;;;21.00;21.00;;;;;18.75;52.70;101295.41;4931091;29;8892;-69
2021/10/16 15:46:29;;;;;;;;;23.50;23.50;;;;;18.72;53.43;101298.97;4928954;29;8873;-68
2021/10/16 15:49:24;;;;;;;;;25.25;25.25;;;;;18.70;52.71;101295.72;4933226;29;8850;-69
2021/10/16 15:52:20;;;;;;;;;23.00;23.00;;;;;18.50;53.02;101300.50;4934255;29;8932;-68
2021/10/16 15:55:16;;;;;;;;;25.33;23.33;;;;;18.53;52.91;101297.75;4933097;29;8932;-69
2021/10/16 15:57:45;;;;;;;;;21.50;21.25;;;;;18.60;52.72;101302.69;4919867;29;8955;-68
2021/10/16 16:00:34;;;;;;;;;24.25;23.75;;;;;18.59;53.14;101301.91;4919110;29;8869;-67
2021/10/16 16:03:24;;;;;;;;;25.50;25.50;;;;;18.65;52.76;101308.00;4951387;28;8857;-68
2021/10/16 16:05:52;;;;;;;;;27.33;27.33;;;;;18.55;53.64;101303.00;4936549;29;8869;-68
2021/10/16 16:08:20;;;;;;;;;27.00;27.00;;;;;18.15;56.07;101309.78;4937496;29;9240;-68
2021/10/16 16:10:48;;;;;;;;;26.33;26.33;;;;;18.05;56.43;101305.59;4938640;28;9201;-68
2021/10/16 16:13:44;;;;;;;;;32.00;31.00;;;;;17.83;57.28;101308.28;4936168;29;9084;-68
2021/10/16 16:16:39;;;;;;;;;33.33;31.67;;;;;17.74;57.79;101314.91;4935691;29;9177;-69
2021/10/16 16:19:12;;;;;;;;;35.50;33.50;;;;;17.85;57.31;101308.72;4950999;29;9438;-69
2021/10/16 16:21:40;;;;;;;;;68.75;55.25;;;;;17.85;56.54;101309.53;4938057;29;9903;-70
2021/10/16 16:24:08;;;;;;;;;60.00;48.00;;;;;17.76;56.17;101312.53;4937639;29;11108;-69
2021/10/16 16:26:49;;;;;;;;;78.50;67.50;;;;;17.58;56.84;101308.50;4936383;29;11571;-69
2021/10/16 16:29:17;;;;;;;;;76.50;63.75;;;;;17.50;57.05;101301.13;4936971;29;11569;-70
2021/10/16 16:31:44;;;;;;;;;74.00;60.75;;;;;17.57;57.07;101301.28;4920229;29;11566;-70
2021/10/16 16:34:40;;;;;;;;;74.50;61.25;;;;;17.49;56.99;101308.69;4937339;29;11650;-70
2021/10/16 16:37:36;;;;;;;;;73.50;57.00;;;;;17.47;56.92;101310.22;4937144;29;11665;-71
2021/10/16 16:40:05;;;;;;;;;67.75;55.00;;;;;17.41;57.30;101303.28;4918753;29;11822;-71
2021/10/16 16:43:01;;;;;;;;;72.25;56.75;;;;;17.39;57.74;101298.03;4931659;29;11205;-71
2021/10/16 16:45:39;;;;;;;;;69.00;54.75;;;;;17.40;57.48;101298.84;4934934;29;11586;-71
2021/10/16 16:48:35;;;;;;;;;74.00;59.00;;;;;17.31;57.40;101295.44;4937171;28;11554;-70
2021/10/16 16:51:31;;;;;;;;;72.00;57.75;;;;;17.26;57.43;101301.31;4944626;28;11602;-69
2021/10/16 16:54:26;;;;;;;;;73.25;59.25;;;;;17.14;57.52;101303.03;4934762;29;11581;-69
2021/10/16 16:57:23;;;;;;;;;68.75;55.25;;;;;17.12;57.85;101301.78;4936115;29;11564;-71
2021/10/16 17:00:19;;;;;;;;;63.25;51.25;;;;;17.08;57.58;101301.66;4936638;29;11611;-71
2021/10/16 17:03:14;;;;;;;;;62.00;50.00;;;;;16.97;57.89;101286.63;4938036;29;11215;-71
2021/10/16 17:06:10;;;;;;;;;59.25;49.00;;;;;16.98;57.84;101290.22;4935520;29;11177;-70
2021/10/16 17:09:09;;;;;;;;;55.25;45.50;;;;;16.98;58.06;101299.41;4935700;29;11187;-70
2021/10/16 17:12:10;;;;;;;;;55.50;46.50;;;;;16.88;58.11;101297.16;4934507;29;10902;-70
2021/10/16 17:15:07;;;;;;;;;57.25;47.00;;;;;16.98;57.94;101298.59;4935649;29;10730;-70
2021/10/16 17:17:45;;;;;;;;;62.25;49.25;;;;;16.98;57.83;101287.44;4935900;29;11009;-70
2021/10/16 17:20:59;;;;;;;;;60.00;48.75;;;;;16.97;57.65;101291.41;4934297;29;11002;-70
2021/10/16 17:23:26;;;;;;;;;49.00;41.50;;;;;16.85;58.03;101295.06;4936462;29;10984;-71
2021/10/16 17:26:22;;;;;;;;;55.50;46.75;;;;;16.91;57.99;101290.84;4936189;29;10423;-72
2021/10/16 17:29:18;;;;;;;;;46.50;39.50;;;;;16.85;58.16;101295.88;4936623;29;10854;-71
2021/10/16 17:31:50;;;;;;;;;47.50;41.50;;;;;16.91;57.85;101294.44;4919730;29;10664;-72
2021/10/16 17:34:46;;;;;;;;;53.00;43.50;;;;;16.73;58.41;101304.34;4935879;29;10551;-71
2021/10/16 17:37:44;;;;;;;;;49.50;42.75;;;;;16.85;58.24;101298.69;4926377;29;10693;-70
2021/10/16 17:40:40;;;;;;;;;44.00;38.25;;;;;16.72;58.75;101293.53;4932679;28;11380;-71
2021/10/16 17:43:09;;;;;;;;;53.00;44.25;;;;;16.74;58.44;101292.00;4938165;29;10417;-72
2021/10/16 17:45:36;;;;;;;;;48.75;41.50;;;;;16.62;58.79;101289.25;4936966;29;10563;-71
2021/10/16 17:48:05;;;;;;;;;53.00;43.50;;;;;16.62;58.81;101292.03;4935098;29;10442;-71
2021/10/16 17:51:01;;;;;;;;;50.50;43.00;;;;;16.63;58.83;101290.84;4934392;29;10399;-72
2021/10/16 17:53:57;;;;;;;;;47.75;40.25;;;;;16.62;59.02;101292.84;4916596;29;10637;-70
2021/10/16 17:56:52;;;;;;;;;54.75;44.50;;;;;16.60;59.03;101280.41;4932950;29;10696;-72
2021/10/16 17:59:48;;;;;;;;;51.50;44.25;;;;;16.37;59.56;101288.56;4935222;29;10702;-70
2021/10/16 18:02:30;;;;;;;;;58.75;47.25;;;;;16.46;59.42;101291.19;4920898;29;10804;-70
2021/10/16 18:04:58;;;;;;;;;52.00;43.75;;;;;16.56;59.19;101279.50;4950877;29;10837;-71
2021/10/16 18:07:54;;;;;;;;;55.75;45.25;;;;;16.37;59.62;101289.38;4936625;29;10713;-72
2021/10/16 18:10:49;;;;;;;;;51.50;43.00;;;;;16.33;59.65;101288.47;4935730;29;10622;-71
2021/10/16 18:13:45;;;;;;;;;49.25;42.00;;;;;16.45;59.42;101298.75;4934816;29;10651;-71
2021/10/16 18:16:41;;;;;;;;;55.00;44.75;;;;;16.35;59.66;101299.28;4933959;29;10597;-72
2021/10/16 18:19:23;;;;;;;;;45.25;39.50;;;;;16.33;59.66;101299.63;4930710;28;10704;-71
2021/10/16 18:21:51;;;;;;;;;52.25;43.25;;;;;16.44;59.35;101301.91;4919196;29;10789;-72
2021/10/16 18:24:19;;;;;;;;;51.50;42.75;;;;;16.46;59.32;101300.38;4936182;29;10703;-71
2021/10/16 18:26:47;;;;;;;;;50.50;41.75;;;;;16.39;59.55;101306.56;4936152;29;11545;-72
2021/10/16 18:29:44;;;;;;;;;54.50;44.75;;;;;16.35;60.03;101300.09;4922810;29;10603;-72
2021/10/16 18:32:41;;;;;;;;;58.00;48.25;;;;;16.15;60.66;101298.28;4935272;29;10622;-72
2021/10/16 18:35:36;;;;;;;;;52.75;43.75;;;;;16.07;60.84;101288.09;4935020;29;11209;-72
2021/10/16 18:38:32;;;;;;;;;44.25;38.50;;;;;16.17;60.40;101282.00;4934914;29;10973;-72
2021/10/16 18:41:14;;;;;;;;;53.00;44.50;;;;;16.05;60.91;101282.06;4920996;29;10840;-72
2021/10/16 18:44:10;;;;;;;;;46.50;38.50;;;;;16.02;60.97;101279.97;4922231;29;10746;-72
2021/10/16 18:47:06;;;;;;;;;46.50;40.50;;;;;16.08;60.70;101282.16;4922302;29;10462;-72
2021/10/16 18:50:03;;;;;;;;;47.00;37.75;;;;;16.02;61.01;101266.81;4922198;29;10626;-72
2021/10/16 18:53:02;;;;;;;;;27.75;26.75;;;;;15.94;61.18;101275.34;4934834;29;10472;-72
2021/10/16 18:55:58;;;;;;;;;31.50;28.00;;;;;15.88;61.43;101273.97;4934891;29;10379;-73
2021/10/16 18:58:54;;;;;;;;;37.75;35.50;;;;;15.79;61.63;101277.69;4921586;29;10148;-72
2021/10/16 19:01:49;;;;;;;;;42.75;37.75;;;;;15.80;61.64;101270.97;4922186;29;10278;-72
2021/10/16 19:04:45;;;;;;;;;43.75;38.00;;;;;15.77;61.57;101271.66;4935071;29;11286;-73
2021/10/16 19:07:30;;;;;;;;;45.00;38.25;;;;;15.80;61.63;101270.16;4935822;29;10618;-72
2021/10/16 19:10:26;;;;;;;;;57.00;46.50;;;;;15.75;61.48;101274.00;4933754;29;10635;-72
2021/10/16 19:13:21;;;;;;;;;47.75;39.50;;;;;15.73;61.90;101281.09;4934068;29;11127;-72
2021/10/16 19:16:19;;;;;;;;;53.25;44.00;;;;;15.76;61.69;101283.97;4936704;29;10839;-73
2021/10/16 19:19:15;;;;;;;;;42.50;38.50;;;;;15.54;62.44;101281.66;4921868;29;11096;-73
2021/10/16 19:22:11;;;;;;;;;50.50;42.00;;;;;15.53;62.36;101277.25;4936628;29;11421;-72
2021/10/16 19:25:08;;;;;;;;;48.75;41.25;;;;;15.57;62.25;101281.78;4938532;29;10780;-72
2021/10/16 19:28:04;;;;;;;;;47.25;40.75;;;;;15.61;62.21;101276.34;4939645;29;10732;-72
2021/10/16 19:31:00;;;;;;;;;41.25;36.25;;;;;15.58;62.22;101279.81;4938557;29;10863;-72